sensor_id;sensor_type;location;lat;lon;timestamp;temperature;humidity
23283;DHT22;11810;51.178;3.878;2023-07-13T00:01:51;16.40;99.90
23283;DHT22;11810;51.178;3.878;2023-07-13T00:04:21;16.50;99.90
23283;DHT22;11810;51.178;3.878;2023-07-13T00:06:48;16.30;99.90
23283;DHT22;11810;51.178;3.878;2023-07-13T00:09:16;16.30;99.90
23283;DHT22;11810;51.178;3.878;2023-07-13T00:11:43;16.20;99.90
23283;DHT22;11810;51.178;3.878;2023-07-13T00:14:10;16.20;99.90
23283;DHT22;11810;51.178;3.878;2023-07-13T00:16:38;16.20;99.90
23283;DHT22;11810;51.178;3.878;2023-07-13T00:19:06;16.20;99.90
23283;DHT22;11810;51.178;3.878;2023-07-13T00:21:32;16.10;99.90
23283;DHT22;11810;51.178;3.878;2023-07-13T00:23:58;16.00;99.90
23283;DHT22;11810;51.178;3.878;2023-07-13T00:26:26;16.10;99.90
23283;DHT22;11810;51.178;3.878;2023-07-13T00:28:52;16.10;99.90
23283;DHT22;11810;51.178;3.878;2023-07-13T00:31:18;16.10;99.90
23283;DHT22;11810;51.178;3.878;2023-07-13T00:33:44;16.10;99.90
23283;DHT22;11810;51.178;3.878;2023-07-13T00:36:10;16.10;99.90
23283;DHT22;11810;51.178;3.878;2023-07-13T00:38:37;16.20;99.90
23283;DHT22;11810;51.178;3.878;2023-07-13T00:41:04;16.20;99.90
23283;DHT22;11810;51.178;3.878;2023-07-13T00:43:30;16.10;99.90
23283;DHT22;11810;51.178;3.878;2023-07-13T00:48:41;16.20;99.90
23283;DHT22;11810;51.178;3.878;2023-07-13T00:51:08;16.10;99.90
23283;DHT22;11810;51.178;3.878;2023-07-13T00:53:34;16.20;99.90
23283;DHT22;11810;51.178;3.878;2023-07-13T00:56:01;16.20;99.90
23283;DHT22;11810;51.178;3.878;2023-07-13T00:58:28;16.30;99.90
23283;DHT22;11810;51.178;3.878;2023-07-13T01:00:54;16.20;99.90
23283;DHT22;11810;51.178;3.878;2023-07-13T01:03:20;16.00;99.90
23283;DHT22;11810;51.178;3.878;2023-07-13T01:05:48;15.90;99.90
23283;DHT22;11810;51.178;3.878;2023-07-13T01:08:15;15.90;99.90
23283;DHT22;11810;51.178;3.878;2023-07-13T01:10:42;16.10;99.90
23283;DHT22;11810;51.178;3.878;2023-07-13T01:13:15;16.10;99.90
23283;DHT22;11810;51.178;3.878;2023-07-13T01:15:47;16.00;99.90
23283;DHT22;11810;51.178;3.878;2023-07-13T01:18:18;15.90;99.90
23283;DHT22;11810;51.178;3.878;2023-07-13T01:20:56;15.90;99.90
23283;DHT22;11810;51.178;3.878;2023-07-13T01:23:22;15.80;99.90
23283;DHT22;11810;51.178;3.878;2023-07-13T01:25:51;15.90;99.90
23283;DHT22;11810;51.178;3.878;2023-07-13T01:28:17;16.00;99.90
23283;DHT22;11810;51.178;3.878;2023-07-13T01:30:44;16.00;99.90
23283;DHT22;11810;51.178;3.878;2023-07-13T01:33:16;16.00;99.90
23283;DHT22;11810;51.178;3.878;2023-07-13T01:35:43;16.00;99.90
23283;DHT22;11810;51.178;3.878;2023-07-13T01:38:10;15.80;99.90
23283;DHT22;11810;51.178;3.878;2023-07-13T01:40:37;15.90;99.90
23283;DHT22;11810;51.178;3.878;2023-07-13T01:43:04;15.90;99.90
23283;DHT22;11810;51.178;3.878;2023-07-13T01:45:30;15.90;99.90
23283;DHT22;11810;51.178;3.878;2023-07-13T01:47:56;16.00;99.90
23283;DHT22;11810;51.178;3.878;2023-07-13T01:50:24;15.90;99.90
23283;DHT22;11810;51.178;3.878;2023-07-13T01:52:49;16.00;99.90
23283;DHT22;11810;51.178;3.878;2023-07-13T01:55:15;15.90;99.90
23283;DHT22;11810;51.178;3.878;2023-07-13T01:57:42;15.90;99.90
23283;DHT22;11810;51.178;3.878;2023-07-13T02:00:10;15.90;99.90
23283;DHT22;11810;51.178;3.878;2023-07-13T02:02:36;15.80;99.90
23283;DHT22;11810;51.178;3.878;2023-07-13T02:05:02;15.90;99.90
23283;DHT22;11810;51.178;3.878;2023-07-13T02:07:28;16.00;99.90
23283;DHT22;11810;51.178;3.878;2023-07-13T02:09:54;16.00;99.90
23283;DHT22;11810;51.178;3.878;2023-07-13T02:12:19;16.10;99.90
23283;DHT22;11810;51.178;3.878;2023-07-13T02:14:45;16.10;99.90
23283;DHT22;11810;51.178;3.878;2023-07-13T02:17:11;16.10;99.90
23283;DHT22;11810;51.178;3.878;2023-07-13T02:19:37;16.10;99.90
23283;DHT22;11810;51.178;3.878;2023-07-13T02:22:04;16.20;99.90
23283;DHT22;11810;51.178;3.878;2023-07-13T02:24:30;16.20;99.90
23283;DHT22;11810;51.178;3.878;2023-07-13T02:26:55;16.10;99.90
23283;DHT22;11810;51.178;3.878;2023-07-13T02:29:21;16.20;99.90
23283;DHT22;11810;51.178;3.878;2023-07-13T02:31:47;16.10;99.90
23283;DHT22;11810;51.178;3.878;2023-07-13T02:34:13;16.10;99.90
23283;DHT22;11810;51.178;3.878;2023-07-13T02:36:39;16.20;99.90
23283;DHT22;11810;51.178;3.878;2023-07-13T02:39:06;16.10;99.90
23283;DHT22;11810;51.178;3.878;2023-07-13T02:41:32;16.20;99.90
23283;DHT22;11810;51.178;3.878;2023-07-13T02:43:59;16.10;99.90
23283;DHT22;11810;51.178;3.878;2023-07-13T02:46:30;16.10;99.90
23283;DHT22;11810;51.178;3.878;2023-07-13T02:48:56;16.10;99.90
23283;DHT22;11810;51.178;3.878;2023-07-13T02:51:22;16.10;99.90
23283;DHT22;11810;51.178;3.878;2023-07-13T02:53:48;16.10;99.90
23283;DHT22;11810;51.178;3.878;2023-07-13T02:56:14;16.10;99.90
23283;DHT22;11810;51.178;3.878;2023-07-13T02:58:40;15.90;99.90
23283;DHT22;11810;51.178;3.878;2023-07-13T03:01:11;16.10;99.90
23283;DHT22;11810;51.178;3.878;2023-07-13T03:03:37;16.10;99.90
23283;DHT22;11810;51.178;3.878;2023-07-13T03:06:05;16.20;99.90
23283;DHT22;11810;51.178;3.878;2023-07-13T03:08:33;16.20;99.90
23283;DHT22;11810;51.178;3.878;2023-07-13T03:11:05;16.20;99.90
23283;DHT22;11810;51.178;3.878;2023-07-13T03:13:31;16.10;99.90
23283;DHT22;11810;51.178;3.878;2023-07-13T03:15:57;16.00;99.90
23283;DHT22;11810;51.178;3.878;2023-07-13T03:18:23;16.00;99.90
23283;DHT22;11810;51.178;3.878;2023-07-13T03:20:52;16.00;99.90
23283;DHT22;11810;51.178;3.878;2023-07-13T03:23:20;16.10;99.90
23283;DHT22;11810;51.178;3.878;2023-07-13T03:25:46;16.10;99.90
23283;DHT22;11810;51.178;3.878;2023-07-13T03:28:13;16.10;99.90
23283;DHT22;11810;51.178;3.878;2023-07-13T03:30:39;16.10;99.90
23283;DHT22;11810;51.178;3.878;2023-07-13T03:33:05;16.10;99.90
23283;DHT22;11810;51.178;3.878;2023-07-13T03:35:31;16.20;99.90
23283;DHT22;11810;51.178;3.878;2023-07-13T03:37:58;16.20;99.90
23283;DHT22;11810;51.178;3.878;2023-07-13T03:40:25;16.30;99.90
23283;DHT22;11810;51.178;3.878;2023-07-13T03:42:52;16.40;99.90
23283;DHT22;11810;51.178;3.878;2023-07-13T03:45:18;16.20;99.90
23283;DHT22;11810;51.178;3.878;2023-07-13T03:47:44;16.30;99.90
23283;DHT22;11810;51.178;3.878;2023-07-13T03:50:10;16.50;99.90
23283;DHT22;11810;51.178;3.878;2023-07-13T03:52:37;16.50;99.90
23283;DHT22;11810;51.178;3.878;2023-07-13T03:55:03;16.40;99.90
23283;DHT22;11810;51.178;3.878;2023-07-13T03:57:29;16.40;99.90
23283;DHT22;11810;51.178;3.878;2023-07-13T03:59:56;16.40;99.90
23283;DHT22;11810;51.178;3.878;2023-07-13T04:02:22;16.40;99.90
23283;DHT22;11810;51.178;3.878;2023-07-13T04:04:48;16.40;99.90
23283;DHT22;11810;51.178;3.878;2023-07-13T04:07:13;16.30;99.90
23283;DHT22;11810;51.178;3.878;2023-07-13T04:09:39;16.40;99.90
23283;DHT22;11810;51.178;3.878;2023-07-13T04:12:06;16.40;99.90
23283;DHT22;11810;51.178;3.878;2023-07-13T04:14:32;16.50;99.90
23283;DHT22;11810;51.178;3.878;2023-07-13T04:16:58;16.50;99.90
23283;DHT22;11810;51.178;3.878;2023-07-13T04:19:24;16.60;99.90
23283;DHT22;11810;51.178;3.878;2023-07-13T04:21:50;16.50;99.90
23283;DHT22;11810;51.178;3.878;2023-07-13T04:24:16;16.50;99.90
23283;DHT22;11810;51.178;3.878;2023-07-13T04:26:42;16.70;99.90
23283;DHT22;11810;51.178;3.878;2023-07-13T04:29:08;16.80;99.90
23283;DHT22;11810;51.178;3.878;2023-07-13T04:31:34;16.90;99.90
23283;DHT22;11810;51.178;3.878;2023-07-13T04:34:00;17.00;99.90
23283;DHT22;11810;51.178;3.878;2023-07-13T04:36:26;17.10;99.90
23283;DHT22;11810;51.178;3.878;2023-07-13T04:38:54;16.90;99.90
23283;DHT22;11810;51.178;3.878;2023-07-13T04:41:21;17.00;99.90
23283;DHT22;11810;51.178;3.878;2023-07-13T04:43:47;17.00;99.90
23283;DHT22;11810;51.178;3.878;2023-07-13T04:46:15;16.90;99.90
23283;DHT22;11810;51.178;3.878;2023-07-13T04:48:43;16.70;99.90
23283;DHT22;11810;51.178;3.878;2023-07-13T04:51:09;16.90;99.90
23283;DHT22;11810;51.178;3.878;2023-07-13T04:53:35;16.90;99.90
23283;DHT22;11810;51.178;3.878;2023-07-13T04:56:02;17.10;99.90
23283;DHT22;11810;51.178;3.878;2023-07-13T04:58:28;17.10;99.90
23283;DHT22;11810;51.178;3.878;2023-07-13T05:01:03;17.20;99.90
23283;DHT22;11810;51.178;3.878;2023-07-13T05:03:29;17.10;99.90
23283;DHT22;11810;51.178;3.878;2023-07-13T05:05:57;17.20;99.90
23283;DHT22;11810;51.178;3.878;2023-07-13T05:08:23;17.20;99.90
23283;DHT22;11810;51.178;3.878;2023-07-13T05:10:50;17.20;99.90
23283;DHT22;11810;51.178;3.878;2023-07-13T05:13:16;17.30;99.90
23283;DHT22;11810;51.178;3.878;2023-07-13T05:15:42;17.40;99.90
23283;DHT22;11810;51.178;3.878;2023-07-13T05:18:08;17.50;99.90
23283;DHT22;11810;51.178;3.878;2023-07-13T05:20:34;17.50;99.90
23283;DHT22;11810;51.178;3.878;2023-07-13T05:22:59;17.60;99.90
23283;DHT22;11810;51.178;3.878;2023-07-13T05:25:26;17.60;99.90
23283;DHT22;11810;51.178;3.878;2023-07-13T05:27:52;17.40;99.90
23283;DHT22;11810;51.178;3.878;2023-07-13T05:30:18;17.30;99.90
23283;DHT22;11810;51.178;3.878;2023-07-13T05:32:44;17.30;99.90
23283;DHT22;11810;51.178;3.878;2023-07-13T05:35:10;17.50;99.90
23283;DHT22;11810;51.178;3.878;2023-07-13T05:37:37;17.90;99.90
23283;DHT22;11810;51.178;3.878;2023-07-13T05:40:03;18.10;99.90
23283;DHT22;11810;51.178;3.878;2023-07-13T05:42:30;18.20;99.90
23283;DHT22;11810;51.178;3.878;2023-07-13T05:44:57;18.30;99.90
23283;DHT22;11810;51.178;3.878;2023-07-13T05:47:23;18.40;99.90
23283;DHT22;11810;51.178;3.878;2023-07-13T05:49:49;18.30;99.90
23283;DHT22;11810;51.178;3.878;2023-07-13T05:52:15;18.30;99.90
23283;DHT22;11810;51.178;3.878;2023-07-13T05:54:41;18.30;99.90
23283;DHT22;11810;51.178;3.878;2023-07-13T05:57:07;18.60;99.90
23283;DHT22;11810;51.178;3.878;2023-07-13T05:59:33;18.60;99.90
23283;DHT22;11810;51.178;3.878;2023-07-13T06:01:58;18.80;99.90
23283;DHT22;11810;51.178;3.878;2023-07-13T06:04:24;18.90;99.90
23283;DHT22;11810;51.178;3.878;2023-07-13T06:06:50;18.60;99.90
23283;DHT22;11810;51.178;3.878;2023-07-13T06:09:16;18.80;99.90
23283;DHT22;11810;51.178;3.878;2023-07-13T06:11:42;18.70;99.90
23283;DHT22;11810;51.178;3.878;2023-07-13T06:14:08;18.70;99.90
23283;DHT22;11810;51.178;3.878;2023-07-13T06:16:34;18.90;99.90
23283;DHT22;11810;51.178;3.878;2023-07-13T06:19:01;18.80;99.90
23283;DHT22;11810;51.178;3.878;2023-07-13T06:21:27;18.80;99.90
23283;DHT22;11810;51.178;3.878;2023-07-13T06:23:53;18.90;99.90
23283;DHT22;11810;51.178;3.878;2023-07-13T06:26:20;19.10;99.90
23283;DHT22;11810;51.178;3.878;2023-07-13T06:28:46;19.20;99.90
23283;DHT22;11810;51.178;3.878;2023-07-13T06:31:13;19.40;99.90
23283;DHT22;11810;51.178;3.878;2023-07-13T06:33:40;19.60;99.90
23283;DHT22;11810;51.178;3.878;2023-07-13T06:36:07;20.00;99.90
23283;DHT22;11810;51.178;3.878;2023-07-13T06:38:33;19.90;99.90
23283;DHT22;11810;51.178;3.878;2023-07-13T06:40:59;19.80;99.90
23283;DHT22;11810;51.178;3.878;2023-07-13T06:43:25;19.50;99.90
23283;DHT22;11810;51.178;3.878;2023-07-13T06:45:53;19.30;99.90
23283;DHT22;11810;51.178;3.878;2023-07-13T06:48:20;19.30;99.90
23283;DHT22;11810;51.178;3.878;2023-07-13T06:50:47;19.50;99.90
23283;DHT22;11810;51.178;3.878;2023-07-13T06:53:13;19.80;99.90
23283;DHT22;11810;51.178;3.878;2023-07-13T06:55:39;19.90;99.90
23283;DHT22;11810;51.178;3.878;2023-07-13T06:58:06;20.30;99.90
23283;DHT22;11810;51.178;3.878;2023-07-13T07:00:32;20.30;99.90
23283;DHT22;11810;51.178;3.878;2023-07-13T07:02:58;20.40;99.90
23283;DHT22;11810;51.178;3.878;2023-07-13T07:05:24;20.80;99.90
23283;DHT22;11810;51.178;3.878;2023-07-13T07:07:52;21.30;99.90
23283;DHT22;11810;51.178;3.878;2023-07-13T07:10:19;22.30;99.90
23283;DHT22;11810;51.178;3.878;2023-07-13T07:12:45;23.10;99.90
23283;DHT22;11810;51.178;3.878;2023-07-13T07:15:11;23.30;99.90
23283;DHT22;11810;51.178;3.878;2023-07-13T07:17:37;22.60;99.90
23283;DHT22;11810;51.178;3.878;2023-07-13T07:20:04;22.10;99.90
23283;DHT22;11810;51.178;3.878;2023-07-13T07:22:30;21.90;99.90
23283;DHT22;11810;51.178;3.878;2023-07-13T07:24:57;22.00;99.90
23283;DHT22;11810;51.178;3.878;2023-07-13T07:27:23;22.00;99.90
23283;DHT22;11810;51.178;3.878;2023-07-13T07:29:50;21.90;99.90
23283;DHT22;11810;51.178;3.878;2023-07-13T07:32:16;22.20;99.90
23283;DHT22;11810;51.178;3.878;2023-07-13T07:34:42;23.20;99.90
23283;DHT22;11810;51.178;3.878;2023-07-13T07:37:11;24.20;99.90
23283;DHT22;11810;51.178;3.878;2023-07-13T07:39:38;24.70;99.90
23283;DHT22;11810;51.178;3.878;2023-07-13T07:42:04;25.10;99.90
23283;DHT22;11810;51.178;3.878;2023-07-13T07:44:33;25.40;99.90
23283;DHT22;11810;51.178;3.878;2023-07-13T07:46:59;25.70;99.90
23283;DHT22;11810;51.178;3.878;2023-07-13T07:49:26;25.40;99.90
23283;DHT22;11810;51.178;3.878;2023-07-13T07:51:52;25.60;99.90
23283;DHT22;11810;51.178;3.878;2023-07-13T07:54:18;26.10;99.90
23283;DHT22;11810;51.178;3.878;2023-07-13T07:56:44;26.50;99.90
23283;DHT22;11810;51.178;3.878;2023-07-13T07:59:09;26.40;99.90
23283;DHT22;11810;51.178;3.878;2023-07-13T08:01:36;25.40;99.90
23283;DHT22;11810;51.178;3.878;2023-07-13T08:04:02;24.40;99.90
23283;DHT22;11810;51.178;3.878;2023-07-13T08:06:28;23.70;99.90
23283;DHT22;11810;51.178;3.878;2023-07-13T08:08:54;22.80;99.90
23283;DHT22;11810;51.178;3.878;2023-07-13T08:11:21;22.40;99.90
23283;DHT22;11810;51.178;3.878;2023-07-13T08:13:48;23.10;99.90
23283;DHT22;11810;51.178;3.878;2023-07-13T08:16:15;24.60;99.90
23283;DHT22;11810;51.178;3.878;2023-07-13T08:18:40;25.30;99.90
23283;DHT22;11810;51.178;3.878;2023-07-13T08:21:07;25.30;99.90
23283;DHT22;11810;51.178;3.878;2023-07-13T08:23:34;24.20;99.90
23283;DHT22;11810;51.178;3.878;2023-07-13T08:26:01;23.50;99.90
23283;DHT22;11810;51.178;3.878;2023-07-13T08:28:28;24.60;99.90
23283;DHT22;11810;51.178;3.878;2023-07-13T08:30:54;25.60;99.90
23283;DHT22;11810;51.178;3.878;2023-07-13T08:33:21;25.80;99.90
23283;DHT22;11810;51.178;3.878;2023-07-13T08:35:50;26.30;99.90
23283;DHT22;11810;51.178;3.878;2023-07-13T08:38:17;27.20;99.90
23283;DHT22;11810;51.178;3.878;2023-07-13T08:40:44;26.80;99.90
23283;DHT22;11810;51.178;3.878;2023-07-13T08:43:16;25.70;99.90
23283;DHT22;11810;51.178;3.878;2023-07-13T08:46:05;25.00;99.90
23283;DHT22;11810;51.178;3.878;2023-07-13T08:48:44;25.20;99.90
23283;DHT22;11810;51.178;3.878;2023-07-13T08:56:43;26.60;99.90
23283;DHT22;11810;51.178;3.878;2023-07-13T08:59:14;26.60;99.90
23283;DHT22;11810;51.178;3.878;2023-07-13T09:04:36;27.90;99.90
23283;DHT22;11810;51.178;3.878;2023-07-13T09:07:18;28.10;99.90
23283;DHT22;11810;51.178;3.878;2023-07-13T09:12:40;29.00;99.90
23283;DHT22;11810;51.178;3.878;2023-07-13T09:15:31;29.20;99.90
23283;DHT22;11810;51.178;3.878;2023-07-13T09:18:08;29.10;99.90
23283;DHT22;11810;51.178;3.878;2023-07-13T09:20:40;29.00;99.90
23283;DHT22;11810;51.178;3.878;2023-07-13T09:23:16;29.40;99.90
23283;DHT22;11810;51.178;3.878;2023-07-13T09:25:47;29.30;99.90
23283;DHT22;11810;51.178;3.878;2023-07-13T09:28:25;28.10;99.90
23283;DHT22;11810;51.178;3.878;2023-07-13T09:33:41;27.30;99.90
23283;DHT22;11810;51.178;3.878;2023-07-13T09:39:15;28.20;99.90
23283;DHT22;11810;51.178;3.878;2023-07-13T09:44:55;29.80;99.90
23283;DHT22;11810;51.178;3.878;2023-07-13T09:47:27;30.00;99.90
23283;DHT22;11810;51.178;3.878;2023-07-13T09:52:24;28.60;99.90
23283;DHT22;11810;51.178;3.878;2023-07-13T09:54:51;27.70;99.90
23283;DHT22;11810;51.178;3.878;2023-07-13T09:57:23;27.40;99.90
23283;DHT22;11810;51.178;3.878;2023-07-13T09:59:51;28.10;99.90
23283;DHT22;11810;51.178;3.878;2023-07-13T10:05:04;29.90;99.90
23283;DHT22;11810;51.178;3.878;2023-07-13T10:07:32;30.20;99.90
23283;DHT22;11810;51.178;3.878;2023-07-13T10:10:00;31.00;99.90
23283;DHT22;11810;51.178;3.878;2023-07-13T10:12:28;30.00;99.90
23283;DHT22;11810;51.178;3.878;2023-07-13T10:14:55;29.10;99.90
23283;DHT22;11810;51.178;3.878;2023-07-13T10:17:30;28.60;99.90
23283;DHT22;11810;51.178;3.878;2023-07-13T10:20:04;28.30;99.90
23283;DHT22;11810;51.178;3.878;2023-07-13T10:25:24;27.10;99.90
23283;DHT22;11810;51.178;3.878;2023-07-13T10:27:54;25.80;99.90
23283;DHT22;11810;51.178;3.878;2023-07-13T10:30:28;24.00;99.90
23283;DHT22;11810;51.178;3.878;2023-07-13T10:33:00;22.60;99.90
23283;DHT22;11810;51.178;3.878;2023-07-13T10:35:29;21.50;99.90
23283;DHT22;11810;51.178;3.878;2023-07-13T10:38:07;20.30;99.90
23283;DHT22;11810;51.178;3.878;2023-07-13T10:40:41;19.20;99.90
23283;DHT22;11810;51.178;3.878;2023-07-13T10:43:27;18.90;99.90
23283;DHT22;11810;51.178;3.878;2023-07-13T10:45:54;18.90;99.90
23283;DHT22;11810;51.178;3.878;2023-07-13T10:48:21;19.10;99.90
23283;DHT22;11810;51.178;3.878;2023-07-13T10:50:51;19.20;99.90
23283;DHT22;11810;51.178;3.878;2023-07-13T10:53:34;19.20;99.90
23283;DHT22;11810;51.178;3.878;2023-07-13T10:58:44;19.20;99.90
23283;DHT22;11810;51.178;3.878;2023-07-13T11:01:15;19.30;99.90
23283;DHT22;11810;51.178;3.878;2023-07-13T11:03:54;19.20;99.90
23283;DHT22;11810;51.178;3.878;2023-07-13T11:08:59;19.20;99.90
23283;DHT22;11810;51.178;3.878;2023-07-13T11:13:58;18.80;99.90
23283;DHT22;11810;51.178;3.878;2023-07-13T11:16:43;18.50;99.90
23283;DHT22;11810;51.178;3.878;2023-07-13T11:24:57;18.90;99.90
23283;DHT22;11810;51.178;3.878;2023-07-13T11:27:45;19.10;99.90
23283;DHT22;11810;51.178;3.878;2023-07-13T11:33:12;19.50;99.90
23283;DHT22;11810;51.178;3.878;2023-07-13T11:38:20;20.10;99.90
23283;DHT22;11810;51.178;3.878;2023-07-13T11:40:48;20.20;99.90
23283;DHT22;11810;51.178;3.878;2023-07-13T11:43:16;20.40;99.90
23283;DHT22;11810;51.178;3.878;2023-07-13T11:45:43;20.90;99.90
23283;DHT22;11810;51.178;3.878;2023-07-13T11:48:27;21.30;99.90
23283;DHT22;11810;51.178;3.878;2023-07-13T11:51:00;21.90;99.90
23283;DHT22;11810;51.178;3.878;2023-07-13T11:53:30;22.90;99.90
23283;DHT22;11810;51.178;3.878;2023-07-13T11:56:01;23.40;99.90
23283;DHT22;11810;51.178;3.878;2023-07-13T11:58:27;23.80;99.90
23283;DHT22;11810;51.178;3.878;2023-07-13T12:00:55;23.50;99.90
23283;DHT22;11810;51.178;3.878;2023-07-13T12:03:25;23.70;99.90
23283;DHT22;11810;51.178;3.878;2023-07-13T12:06:04;23.80;99.90
23283;DHT22;11810;51.178;3.878;2023-07-13T12:08:38;23.90;99.90
23283;DHT22;11810;51.178;3.878;2023-07-13T12:11:16;23.90;99.90
23283;DHT22;11810;51.178;3.878;2023-07-13T12:13:44;23.60;99.90
23283;DHT22;11810;51.178;3.878;2023-07-13T12:18:52;24.10;99.90
23283;DHT22;11810;51.178;3.878;2023-07-13T12:21:29;24.00;99.90
23283;DHT22;11810;51.178;3.878;2023-07-13T12:23:56;23.70;99.90
23283;DHT22;11810;51.178;3.878;2023-07-13T12:26:22;23.50;99.90
23283;DHT22;11810;51.178;3.878;2023-07-13T12:28:52;23.40;99.90
23283;DHT22;11810;51.178;3.878;2023-07-13T12:31:31;23.70;99.90
23283;DHT22;11810;51.178;3.878;2023-07-13T12:34:10;24.10;99.90
23283;DHT22;11810;51.178;3.878;2023-07-13T12:36:58;24.00;99.90
23283;DHT22;11810;51.178;3.878;2023-07-13T12:39:44;23.80;99.90
23283;DHT22;11810;51.178;3.878;2023-07-13T12:42:31;24.60;99.90
23283;DHT22;11810;51.178;3.878;2023-07-13T12:44:59;25.40;99.90
23283;DHT22;11810;51.178;3.878;2023-07-13T12:47:27;25.10;99.90
23283;DHT22;11810;51.178;3.878;2023-07-13T12:49:55;23.90;99.90
23283;DHT22;11810;51.178;3.878;2023-07-13T12:52:27;23.60;99.90
23283;DHT22;11810;51.178;3.878;2023-07-13T12:55:19;23.50;99.90
23283;DHT22;11810;51.178;3.878;2023-07-13T12:57:55;23.70;99.90
23283;DHT22;11810;51.178;3.878;2023-07-13T13:00:36;23.30;99.90
23283;DHT22;11810;51.178;3.878;2023-07-13T13:05:44;22.20;99.90
23283;DHT22;11810;51.178;3.878;2023-07-13T13:08:11;21.70;99.90
23283;DHT22;11810;51.178;3.878;2023-07-13T13:10:38;21.50;99.90
23283;DHT22;11810;51.178;3.878;2023-07-13T13:13:04;21.20;99.90
23283;DHT22;11810;51.178;3.878;2023-07-13T13:15:30;21.70;99.90
23283;DHT22;11810;51.178;3.878;2023-07-13T13:17:57;22.50;99.90
23283;DHT22;11810;51.178;3.878;2023-07-13T13:20:25;23.00;99.90
23283;DHT22;11810;51.178;3.878;2023-07-13T13:22:51;24.20;99.90
23283;DHT22;11810;51.178;3.878;2023-07-13T13:25:18;25.10;99.90
23283;DHT22;11810;51.178;3.878;2023-07-13T13:27:45;25.40;99.90
23283;DHT22;11810;51.178;3.878;2023-07-13T13:30:16;25.60;99.90
23283;DHT22;11810;51.178;3.878;2023-07-13T13:32:47;25.70;99.90
23283;DHT22;11810;51.178;3.878;2023-07-13T13:35:15;26.30;99.90
23283;DHT22;11810;51.178;3.878;2023-07-13T13:37:42;26.50;99.90
23283;DHT22;11810;51.178;3.878;2023-07-13T13:40:19;26.60;99.90
23283;DHT22;11810;51.178;3.878;2023-07-13T13:42:45;26.50;99.90
23283;DHT22;11810;51.178;3.878;2023-07-13T13:45:12;25.20;99.90
23283;DHT22;11810;51.178;3.878;2023-07-13T13:47:39;24.40;99.90
23283;DHT22;11810;51.178;3.878;2023-07-13T13:50:20;24.40;99.90
23283;DHT22;11810;51.178;3.878;2023-07-13T13:52:48;24.90;99.90
23283;DHT22;11810;51.178;3.878;2023-07-13T13:55:14;25.50;99.90
23283;DHT22;11810;51.178;3.878;2023-07-13T13:57:41;25.50;99.90
23283;DHT22;11810;51.178;3.878;2023-07-13T14:00:10;25.80;99.90
23283;DHT22;11810;51.178;3.878;2023-07-13T14:02:42;25.80;99.90
23283;DHT22;11810;51.178;3.878;2023-07-13T14:05:13;25.80;99.90
23283;DHT22;11810;51.178;3.878;2023-07-13T14:07:41;24.90;99.90
23283;DHT22;11810;51.178;3.878;2023-07-13T14:10:17;24.20;99.90
23283;DHT22;11810;51.178;3.878;2023-07-13T14:12:45;23.90;99.90
23283;DHT22;11810;51.178;3.878;2023-07-13T14:15:25;23.60;99.90
23283;DHT22;11810;51.178;3.878;2023-07-13T14:17:52;23.40;99.90
23283;DHT22;11810;51.178;3.878;2023-07-13T14:20:20;23.30;99.90
23283;DHT22;11810;51.178;3.878;2023-07-13T14:22:48;23.30;99.90
23283;DHT22;11810;51.178;3.878;2023-07-13T14:25:16;23.80;99.90
23283;DHT22;11810;51.178;3.878;2023-07-13T14:27:43;24.20;99.90
23283;DHT22;11810;51.178;3.878;2023-07-13T14:30:21;23.80;99.90
23283;DHT22;11810;51.178;3.878;2023-07-13T14:32:47;23.70;99.90
23283;DHT22;11810;51.178;3.878;2023-07-13T14:35:17;23.40;99.90
23283;DHT22;11810;51.178;3.878;2023-07-13T14:37:44;23.30;99.90
23283;DHT22;11810;51.178;3.878;2023-07-13T14:42:38;23.40;99.90
23283;DHT22;11810;51.178;3.878;2023-07-13T14:45:04;23.70;99.90
23283;DHT22;11810;51.178;3.878;2023-07-13T14:47:31;24.00;99.90
23283;DHT22;11810;51.178;3.878;2023-07-13T14:49:57;24.30;99.90
23283;DHT22;11810;51.178;3.878;2023-07-13T14:52:23;24.50;99.90
23283;DHT22;11810;51.178;3.878;2023-07-13T14:54:51;24.70;99.90
23283;DHT22;11810;51.178;3.878;2023-07-13T14:57:18;24.70;99.90
23283;DHT22;11810;51.178;3.878;2023-07-13T14:59:46;24.20;99.90
23283;DHT22;11810;51.178;3.878;2023-07-13T15:04:47;23.40;99.90
23283;DHT22;11810;51.178;3.878;2023-07-13T15:07:13;23.20;99.90
23283;DHT22;11810;51.178;3.878;2023-07-13T15:09:41;23.30;99.90
23283;DHT22;11810;51.178;3.878;2023-07-13T15:12:07;23.70;99.90
23283;DHT22;11810;51.178;3.878;2023-07-13T15:14:33;23.70;99.90
23283;DHT22;11810;51.178;3.878;2023-07-13T15:17:00;23.80;99.90
23283;DHT22;11810;51.178;3.878;2023-07-13T15:19:26;24.40;99.90
23283;DHT22;11810;51.178;3.878;2023-07-13T15:21:55;24.00;99.90
23283;DHT22;11810;51.178;3.878;2023-07-13T15:24:23;23.80;99.90
23283;DHT22;11810;51.178;3.878;2023-07-13T15:26:50;24.10;99.90
23283;DHT22;11810;51.178;3.878;2023-07-13T15:29:16;24.40;99.90
23283;DHT22;11810;51.178;3.878;2023-07-13T15:31:43;24.60;99.90
23283;DHT22;11810;51.178;3.878;2023-07-13T15:34:15;24.60;99.90
23283;DHT22;11810;51.178;3.878;2023-07-13T15:36:42;24.40;99.90
23283;DHT22;11810;51.178;3.878;2023-07-13T15:39:14;24.00;99.90
23283;DHT22;11810;51.178;3.878;2023-07-13T15:41:41;23.90;99.90
23283;DHT22;11810;51.178;3.878;2023-07-13T15:44:25;23.70;99.90
23283;DHT22;11810;51.178;3.878;2023-07-13T15:46:53;23.60;99.90
23283;DHT22;11810;51.178;3.878;2023-07-13T15:49:19;23.90;99.90
23283;DHT22;11810;51.178;3.878;2023-07-13T15:51:46;24.20;99.90
23283;DHT22;11810;51.178;3.878;2023-07-13T15:54:16;24.30;99.90
23283;DHT22;11810;51.178;3.878;2023-07-13T15:56:42;24.20;99.90
23283;DHT22;11810;51.178;3.878;2023-07-13T15:59:14;24.00;99.90
23283;DHT22;11810;51.178;3.878;2023-07-13T16:01:40;23.50;99.90
23283;DHT22;11810;51.178;3.878;2023-07-13T16:04:08;23.80;99.90
23283;DHT22;11810;51.178;3.878;2023-07-13T16:06:38;24.10;99.90
23283;DHT22;11810;51.178;3.878;2023-07-13T16:09:12;24.30;99.90
23283;DHT22;11810;51.178;3.878;2023-07-13T16:11:42;24.40;99.90
23283;DHT22;11810;51.178;3.878;2023-07-13T16:14:11;24.50;99.90
23283;DHT22;11810;51.178;3.878;2023-07-13T16:16:38;24.50;99.90
23283;DHT22;11810;51.178;3.878;2023-07-13T16:19:05;24.70;99.90
23283;DHT22;11810;51.178;3.878;2023-07-13T16:21:41;24.80;99.90
23283;DHT22;11810;51.178;3.878;2023-07-13T16:24:17;25.10;99.90
23283;DHT22;11810;51.178;3.878;2023-07-13T16:26:43;24.80;99.90
23283;DHT22;11810;51.178;3.878;2023-07-13T16:29:18;24.40;99.90
23283;DHT22;11810;51.178;3.878;2023-07-13T16:34:22;24.20;99.90
23283;DHT22;11810;51.178;3.878;2023-07-13T16:36:50;24.60;99.90
23283;DHT22;11810;51.178;3.878;2023-07-13T16:39:16;24.70;99.90
23283;DHT22;11810;51.178;3.878;2023-07-13T16:41:42;24.50;99.90